createdAt,value
2023-04-04T00:03:18.220Z,63.60
2023-04-04T00:08:41.074Z,63.72
2023-04-04T00:14:03.795Z,63.86
2023-04-04T00:19:26.402Z,63.97
2023-04-04T00:24:49.260Z,63.79
2023-04-04T00:30:12.683Z,63.49
2023-04-04T00:35:35.002Z,63.11
2023-04-04T00:41:03.052Z,62.68
2023-04-04T00:46:27.482Z,62.14
2023-04-04T00:51:49.875Z,61.59
2023-04-04T00:57:14.126Z,61.20
2023-04-04T01:02:37.320Z,60.83
2023-04-04T01:08:00.297Z,60.40
2023-04-04T01:13:22.924Z,59.89
2023-04-04T01:18:47.097Z,59.50
2023-04-04T01:24:12.852Z,59.05
2023-04-04T01:29:35.237Z,58.54
2023-04-04T01:35:24.718Z,58.13
2023-04-04T01:40:52.177Z,57.40
2023-04-04T01:46:15.083Z,56.22
2023-04-04T01:51:39.136Z,55.61
2023-04-04T01:57:02.537Z,55.48
2023-04-04T02:02:24.881Z,55.51
2023-04-04T02:07:47.521Z,55.76
2023-04-04T02:13:11.690Z,56.13
2023-04-04T02:18:34.657Z,56.44
2023-04-04T02:23:57.044Z,56.64
2023-04-04T02:29:20.108Z,56.75
2023-04-04T02:34:42.931Z,56.68
2023-04-04T02:40:05.834Z,56.73
2023-04-04T02:45:29.276Z,56.90
2023-04-04T02:50:52.789Z,56.85
2023-04-04T02:56:15.602Z,56.63
2023-04-04T03:01:38.435Z,56.08
2023-04-04T03:07:01.176Z,55.26
2023-04-04T03:12:26.129Z,53.73
2023-04-04T03:17:48.391Z,53.09
2023-04-04T03:23:10.721Z,52.75
2023-04-04T03:28:32.999Z,52.56
2023-04-04T03:33:56.047Z,52.46
2023-04-04T03:39:18.377Z,52.59
2023-04-04T03:44:40.689Z,52.46
2023-04-04T03:50:04.178Z,52.44
2023-04-04T03:55:26.656Z,52.65
2023-04-04T04:00:48.952Z,52.66
2023-04-04T04:06:13.225Z,52.92
2023-04-04T04:11:35.494Z,52.91
2023-04-04T04:17:00.822Z,52.88
2023-04-04T04:22:23.071Z,53.04
2023-04-04T04:27:46.541Z,53.08
2023-04-04T04:33:09.403Z,53.56
2023-04-04T04:38:31.668Z,54.66
2023-04-04T04:43:53.915Z,54.42
2023-04-04T04:49:16.208Z,54.54
2023-04-04T04:54:38.585Z,54.35
2023-04-04T05:00:01.605Z,53.78
2023-04-04T05:05:24.097Z,53.65
2023-04-04T05:10:46.502Z,53.95
2023-04-04T05:16:09.036Z,53.97
2023-04-04T05:21:31.368Z,53.99
2023-04-04T05:26:53.656Z,53.58
2023-04-04T05:32:16.404Z,53.40
2023-04-04T05:37:38.680Z,53.50
2023-04-04T05:43:08.623Z,53.62
2023-04-04T05:48:31.457Z,53.78
2023-04-04T05:53:53.788Z,54.19
2023-04-04T05:59:16.939Z,54.64
2023-04-04T06:04:41.033Z,55.34
2023-04-04T06:10:03.570Z,57.08
2023-04-04T06:15:26.692Z,58.87
2023-04-04T06:20:49.037Z,60.39
2023-04-04T06:26:13.236Z,60.83
2023-04-04T06:31:36.065Z,61.31
2023-04-04T06:36:58.372Z,61.80
2023-04-04T06:42:20.787Z,61.77
2023-04-04T06:47:43.065Z,61.02
2023-04-04T06:53:06.947Z,59.70
2023-04-04T06:58:29.276Z,58.70
2023-04-04T07:03:51.687Z,57.63
2023-04-04T07:09:25.940Z,56.69
2023-04-04T07:14:38.627Z,56.12
2023-04-04T07:20:02.923Z,55.82
2023-04-04T07:25:28.516Z,55.06
2023-04-04T07:30:50.786Z,53.72
2023-04-04T07:36:15.846Z,53.43
2023-04-04T07:41:38.350Z,52.37
2023-04-04T07:47:09.437Z,50.92
2023-04-04T07:52:24.522Z,50.63
2023-04-04T07:57:48.961Z,50.60
2023-04-04T08:03:15.418Z,50.21
2023-04-04T08:08:38.072Z,50.21
2023-04-04T08:14:00.692Z,50.11
2023-04-04T08:19:23.544Z,49.20
2023-04-04T08:24:46.856Z,50.25
2023-04-04T08:30:09.542Z,49.31
2023-04-04T08:35:32.552Z,49.30
2023-04-04T08:40:56.847Z,48.73
2023-04-04T08:46:21.120Z,49.79
2023-04-04T08:51:46.022Z,49.78
2023-04-04T08:57:08.635Z,49.65
2023-04-04T09:02:38.933Z,48.77
2023-04-04T09:08:04.200Z,46.54
2023-04-04T09:13:26.710Z,45.62
2023-04-04T09:18:49.585Z,46.45
2023-04-04T09:24:23.073Z,47.37
2023-04-04T09:29:47.499Z,47.88
2023-04-04T09:35:11.054Z,47.69
2023-04-04T09:40:36.690Z,47.00
2023-04-04T09:46:01.557Z,46.54
2023-04-04T09:51:26.120Z,46.64
2023-04-04T09:56:49.661Z,46.86
2023-04-04T10:02:16.778Z,45.35
2023-04-04T10:07:42.577Z,46.09
2023-04-04T10:13:05.148Z,46.30
2023-04-04T10:18:29.031Z,46.82
2023-04-04T10:23:53.397Z,47.76
2023-04-04T10:29:15.691Z,47.96
2023-04-04T10:34:51.913Z,47.81
2023-04-04T10:40:23.485Z,47.48
2023-04-04T10:45:47.008Z,48.77
2023-04-04T10:51:11.348Z,51.76
2023-04-04T10:56:34.958Z,53.46
2023-04-04T11:02:11.860Z,53.30
2023-04-04T11:07:40.708Z,53.93
2023-04-04T11:13:13.362Z,49.68
2023-04-04T11:18:37.822Z,42.55
2023-04-04T11:24:14.019Z,42.58
2023-04-04T11:29:53.820Z,44.74
2023-04-04T11:35:27.330Z,47.57
2023-04-04T11:41:09.061Z,45.20
2023-04-04T11:46:34.588Z,44.58
2023-04-04T11:51:59.208Z,45.46
2023-04-04T11:57:24.042Z,47.01
2023-04-04T12:02:47.880Z,48.55
2023-04-04T12:08:11.026Z,49.31
2023-04-04T12:13:35.966Z,48.96
2023-04-04T12:18:58.586Z,47.86
2023-04-04T12:24:21.598Z,47.00
2023-04-04T12:29:47.803Z,46.10
2023-04-04T12:35:16.168Z,46.34
2023-04-04T12:40:45.154Z,42.85
2023-04-04T12:46:14.300Z,37.98
2023-04-04T12:51:38.979Z,37.82
2023-04-04T12:57:04.366Z,37.84
2023-04-04T13:02:30.179Z,39.18
2023-04-04T13:07:54.757Z,41.19
2023-04-04T13:13:21.873Z,43.33
2023-04-04T13:18:49.408Z,43.48
2023-04-04T13:24:12.045Z,42.78
2023-04-04T13:29:34.368Z,40.19
2023-04-04T13:34:56.718Z,38.46
2023-04-04T13:40:20.080Z,41.08
2023-04-04T13:45:46.307Z,40.07
2023-04-04T13:51:08.844Z,37.64
2023-04-04T13:56:31.987Z,35.22
2023-04-04T14:01:55.098Z,34.92
2023-04-04T14:07:18.122Z,36.98
2023-04-04T14:12:41.146Z,38.19
2023-04-04T14:18:03.963Z,38.91
2023-04-04T14:23:26.758Z,40.16
2023-04-04T14:28:49.121Z,40.82
2023-04-04T14:34:14.629Z,41.79
2023-04-04T14:39:45.255Z,40.02
2023-04-04T14:45:08.056Z,36.80
2023-04-04T14:50:30.900Z,38.45
2023-04-04T14:55:53.873Z,39.55
2023-04-04T15:01:16.409Z,40.47
2023-04-04T15:06:39.676Z,41.44
2023-04-04T15:12:02.911Z,43.69
2023-04-04T15:17:25.830Z,43.85
2023-04-04T15:22:48.349Z,41.84
2023-04-04T15:28:10.643Z,41.04
2023-04-04T15:33:33.260Z,40.15
2023-04-04T15:38:56.136Z,36.24
2023-04-04T15:44:19.098Z,39.48
2023-04-04T15:49:41.509Z,43.31
2023-04-04T15:55:03.921Z,44.80
2023-04-04T16:06:01.369Z,41.39
2023-04-04T16:11:27.287Z,42.00
2023-04-04T16:16:49.541Z,43.12
2023-04-04T16:22:13.514Z,43.17
2023-04-04T16:27:37.314Z,43.71
2023-04-04T16:32:59.839Z,43.15
2023-04-04T16:38:22.210Z,40.67
2023-04-04T16:43:46.170Z,41.11
2023-04-04T16:49:09.026Z,42.35
2023-04-04T16:54:31.373Z,43.67
2023-04-04T16:59:53.804Z,43.95
2023-04-04T17:05:16.386Z,44.01
2023-04-04T17:10:43.164Z,44.56
2023-04-04T17:16:06.742Z,45.10
2023-04-04T17:21:29.014Z,45.57
2023-04-04T17:26:51.822Z,47.73
2023-04-04T17:32:20.387Z,51.07
2023-04-04T17:37:42.823Z,53.23
2023-04-04T17:43:05.168Z,54.26
2023-04-04T17:48:29.655Z,54.95
2023-04-04T17:53:52.273Z,55.26
2023-04-04T17:59:16.213Z,55.39
2023-04-04T18:04:38.862Z,55.59
2023-04-04T18:10:01.400Z,56.04
2023-04-04T18:15:24.717Z,56.60
2023-04-04T18:20:49.858Z,56.57
2023-04-04T18:26:13.281Z,57.20
2023-04-04T18:31:35.687Z,57.87
2023-04-04T18:36:57.970Z,58.28
2023-04-04T18:42:21.199Z,58.42
2023-04-04T18:47:45.328Z,59.00
2023-04-04T18:53:08.633Z,58.85
2023-04-04T18:58:32.334Z,58.65
2023-04-04T19:04:01.614Z,58.79
2023-04-04T19:09:26.223Z,59.83
2023-04-04T19:14:48.514Z,60.67
2023-04-04T19:20:10.910Z,60.95
2023-04-04T19:25:33.413Z,61.31
2023-04-04T19:31:02.282Z,61.62
2023-04-04T19:36:28.121Z,61.97
2023-04-04T19:41:54.404Z,61.94
2023-04-04T19:47:17.248Z,62.16
2023-04-04T19:52:41.683Z,62.33
2023-04-04T19:58:04.901Z,62.66
2023-04-04T20:03:46.714Z,63.01
2023-04-04T20:09:21.905Z,63.25
2023-04-04T20:14:44.830Z,63.51
2023-04-04T20:20:07.082Z,64.15
2023-04-04T20:25:45.582Z,64.85
2023-04-04T20:31:14.219Z,65.63
2023-04-04T20:36:43.187Z,66.48
2023-04-04T20:42:05.476Z,67.26
2023-04-04T20:47:52.291Z,67.84
2023-04-04T20:53:16.547Z,68.37
2023-04-04T20:58:42.164Z,68.84
2023-04-04T21:04:04.429Z,69.26
2023-04-04T21:09:26.762Z,69.79
2023-04-04T21:14:55.012Z,70.30
2023-04-04T21:20:22.401Z,70.78
2023-04-04T21:25:53.932Z,71.41
2023-04-04T21:31:24.301Z,72.03
2023-04-04T21:36:48.214Z,72.73
2023-04-04T21:42:12.730Z,73.41
2023-04-04T21:47:35.085Z,74.08
2023-04-04T21:52:57.410Z,74.58
2023-04-04T21:58:19.772Z,74.84
2023-04-04T22:03:43.945Z,75.16
2023-04-04T22:09:07.136Z,75.50
2023-04-04T22:14:30.444Z,75.78
2023-04-04T22:20:03.328Z,75.93
2023-04-04T22:25:26.663Z,76.04
2023-04-04T22:30:50.745Z,76.07
2023-04-04T22:36:15.411Z,76.41
2023-04-04T22:41:42.132Z,76.71
2023-04-04T22:47:06.026Z,77.25
2023-04-04T22:52:31.000Z,77.67
2023-04-04T22:57:53.466Z,77.73
2023-04-04T23:03:17.031Z,77.65
2023-04-04T23:08:39.272Z,77.42
2023-04-04T23:14:01.524Z,77.48
2023-04-04T23:19:23.987Z,77.78
2023-04-04T23:24:46.642Z,78.08
2023-04-04T23:30:10.137Z,78.32
2023-04-04T23:35:32.503Z,78.40
2023-04-04T23:40:54.824Z,78.27
2023-04-04T23:46:18.470Z,78.07
2023-04-04T23:51:42.651Z,77.95
2023-04-04T23:57:04.931Z,78.07
